< Typhoon 202021 2020 Season Typhoon 202023 >
Typhoon 202022 (VAMCO)
General InformationTrack Information on Google MapsDetailed Wind InformationForecast History on Google MapsAccess Analytics MapList of All Images || NewsDisaster Info.WeblogTrackbackTyphoon FrontTwiphoonTyphoon Now!Typhoon ImaginationJMA Disaster Info. XMLResourceGoogle EarthGE AnimationAtom FeedGeoJSON
Detalied Best Track (Time Zone = UTC)
Year Month Day Hour Lat. Long. Pressure (hPa) Wind (kt) Class Image Chart
2020 11 8 00 8.2 135.2 1008 0 2 Image Chart
2020 11 8 06 8.8 133.9 1006 0 2 Image Chart
2020 11 8 12 9.4 133.2 1008 0 2 Image Chart
2020 11 8 18 10.0 132.6 1006 0 2 Image Chart
2020 11 9 00 10.9 131.6 1006 0 2 Image Chart
2020 11 9 06 11.5 130.9 1004 0 2 Image Chart
2020 11 9 12 11.9 130.4 1004 35 3 Image Chart
2020 11 9 18 12.3 130.0 1002 35 3 Image Chart
2020 11 10 00 13.4 128.9 1000 40 3 Image Chart
2020 11 10 06 14.3 128.1 994 45 3 Image Chart
2020 11 10 12 14.5 126.6 992 50 4 Image Chart
2020 11 10 18 14.5 125.7 990 55 4 Image Chart
2020 11 11 00 14.6 124.6 975 65 5 Image Chart
2020 11 11 06 14.4 123.5 970 70 5 Image Chart
2020 11 11 12 14.8 122.8 965 75 5 Image Chart
2020 11 11 18 15.1 121.3 970 70 5 Image Chart
2020 11 12 00 15.2 119.6 985 55 4 Image Chart
2020 11 12 06 15.2 118.5 980 60 4 Image Chart
2020 11 12 12 15.1 117.3 980 60 4 Image Chart
2020 11 12 18 15.2 116.3 980 60 4 Image Chart
2020 11 13 00 15.4 115.5 980 60 4 Image Chart
2020 11 13 06 15.4 114.4 980 60 4 Image Chart
2020 11 13 12 15.5 113.4 965 75 5 Image Chart
2020 11 13 18 15.6 112.4 960 80 5 Image Chart
2020 11 14 00 15.8 111.4 955 85 5 Image Chart
2020 11 14 06 15.9 110.3 975 70 5 Image Chart
2020 11 14 12 16.4 109.4 980 65 5 Image Chart
2020 11 14 18 16.7 108.6 980 65 5 Image Chart
2020 11 15 00 17.1 107.9 990 55 4 Image Chart
2020 11 15 06 17.9 106.6 1000 35 3 Image Chart
2020 11 15 12 18.1 105.9 1008 0 2 Image Chart
2020 11 15 18 18.7 104.3 1012 0 2 Image Chart
2020 11 16 00 19.2 103.6 1014 0 2 Image Chart
2020 11 16 06 20.1 103.0 1014 0 2 Image Chart
Japan Meteorological Agency Best Track Data | Correction Date : 2021-02-06
< Typhoon 202021 2020 Season Typhoon 202023 >

Help